sensor_id;sensor_type;location;lat;lon;timestamp;P1;durP1;ratioP1;P2;durP2;ratioP2
15454;SDS011;21057;51.024;7.540;2023-03-13T00:00:10;32.23;;;29.40;;
15454;SDS011;21057;51.024;7.540;2023-03-13T00:02:40;33.70;;;30.37;;
15454;SDS011;21057;51.024;7.540;2023-03-13T00:05:09;31.27;;;28.77;;
15454;SDS011;21057;51.024;7.540;2023-03-13T00:07:36;32.67;;;30.07;;
15454;SDS011;21057;51.024;7.540;2023-03-13T00:10:03;32.30;;;29.70;;
15454;SDS011;21057;51.024;7.540;2023-03-13T00:12:31;32.10;;;29.43;;
15454;SDS011;21057;51.024;7.540;2023-03-13T00:14:58;32.37;;;28.50;;
15454;SDS011;21057;51.024;7.540;2023-03-13T00:17:25;33.47;;;30.40;;
15454;SDS011;21057;51.024;7.540;2023-03-13T00:19:53;31.13;;;29.23;;
15454;SDS011;21057;51.024;7.540;2023-03-13T00:22:20;31.73;;;29.83;;
15454;SDS011;21057;51.024;7.540;2023-03-13T00:24:47;31.77;;;29.33;;
15454;SDS011;21057;51.024;7.540;2023-03-13T00:27:14;31.93;;;29.23;;
15454;SDS011;21057;51.024;7.540;2023-03-13T00:29:41;31.43;;;29.20;;
15454;SDS011;21057;51.024;7.540;2023-03-13T00:32:17;35.63;;;32.03;;
15454;SDS011;21057;51.024;7.540;2023-03-13T00:34:44;32.07;;;29.97;;
15454;SDS011;21057;51.024;7.540;2023-03-13T00:37:12;31.43;;;29.30;;
15454;SDS011;21057;51.024;7.540;2023-03-13T00:39:40;32.93;;;29.53;;
15454;SDS011;21057;51.024;7.540;2023-03-13T00:42:07;29.30;;;27.47;;
15454;SDS011;21057;51.024;7.540;2023-03-13T00:44:34;30.13;;;28.00;;
15454;SDS011;21057;51.024;7.540;2023-03-13T00:47:01;30.40;;;27.67;;
15454;SDS011;21057;51.024;7.540;2023-03-13T00:49:29;30.73;;;28.33;;
15454;SDS011;21057;51.024;7.540;2023-03-13T00:51:56;29.27;;;27.10;;
15454;SDS011;21057;51.024;7.540;2023-03-13T00:54:24;31.43;;;28.17;;
15454;SDS011;21057;51.024;7.540;2023-03-13T00:56:53;29.27;;;26.90;;
15454;SDS011;21057;51.024;7.540;2023-03-13T01:02:04;29.27;;;26.97;;
15454;SDS011;21057;51.024;7.540;2023-03-13T01:04:31;30.37;;;27.70;;
15454;SDS011;21057;51.024;7.540;2023-03-13T01:06:58;29.93;;;27.40;;
15454;SDS011;21057;51.024;7.540;2023-03-13T01:09:26;30.87;;;28.33;;
15454;SDS011;21057;51.024;7.540;2023-03-13T01:11:53;29.57;;;27.37;;
15454;SDS011;21057;51.024;7.540;2023-03-13T01:14:20;29.10;;;27.20;;
15454;SDS011;21057;51.024;7.540;2023-03-13T01:16:47;31.50;;;29.07;;
15454;SDS011;21057;51.024;7.540;2023-03-13T01:19:14;31.10;;;28.30;;
15454;SDS011;21057;51.024;7.540;2023-03-13T01:21:42;31.13;;;28.63;;
15454;SDS011;21057;51.024;7.540;2023-03-13T01:24:09;30.63;;;28.10;;
15454;SDS011;21057;51.024;7.540;2023-03-13T01:26:38;30.67;;;28.47;;
15454;SDS011;21057;51.024;7.540;2023-03-13T01:29:05;30.40;;;28.40;;
15454;SDS011;21057;51.024;7.540;2023-03-13T01:31:34;31.37;;;28.97;;
15454;SDS011;21057;51.024;7.540;2023-03-13T01:34:06;32.83;;;30.57;;
15454;SDS011;21057;51.024;7.540;2023-03-13T01:36:36;33.97;;;31.40;;
15454;SDS011;21057;51.024;7.540;2023-03-13T01:39:03;35.13;;;32.93;;
15454;SDS011;21057;51.024;7.540;2023-03-13T01:41:31;35.73;;;32.57;;
15454;SDS011;21057;51.024;7.540;2023-03-13T01:44:10;33.33;;;31.10;;
15454;SDS011;21057;51.024;7.540;2023-03-13T01:46:46;35.13;;;32.63;;
15454;SDS011;21057;51.024;7.540;2023-03-13T01:49:13;36.47;;;33.53;;
15454;SDS011;21057;51.024;7.540;2023-03-13T01:51:43;35.53;;;33.03;;
15454;SDS011;21057;51.024;7.540;2023-03-13T01:54:17;34.93;;;32.67;;
15454;SDS011;21057;51.024;7.540;2023-03-13T01:56:50;36.20;;;33.73;;
15454;SDS011;21057;51.024;7.540;2023-03-13T01:59:22;36.07;;;33.90;;
15454;SDS011;21057;51.024;7.540;2023-03-13T02:01:52;35.90;;;32.80;;
15454;SDS011;21057;51.024;7.540;2023-03-13T02:04:21;33.40;;;31.30;;
15454;SDS011;21057;51.024;7.540;2023-03-13T02:06:50;36.27;;;33.27;;
15454;SDS011;21057;51.024;7.540;2023-03-13T02:09:20;38.93;;;35.53;;
15454;SDS011;21057;51.024;7.540;2023-03-13T02:11:54;37.10;;;34.17;;
15454;SDS011;21057;51.024;7.540;2023-03-13T02:14:26;37.70;;;35.23;;
15454;SDS011;21057;51.024;7.540;2023-03-13T02:16:55;35.37;;;33.20;;
15454;SDS011;21057;51.024;7.540;2023-03-13T02:19:23;37.23;;;34.77;;
15454;SDS011;21057;51.024;7.540;2023-03-13T02:21:58;36.70;;;34.07;;
15454;SDS011;21057;51.024;7.540;2023-03-13T02:24:31;37.90;;;35.30;;
15454;SDS011;21057;51.024;7.540;2023-03-13T02:27:14;36.73;;;33.90;;
15454;SDS011;21057;51.024;7.540;2023-03-13T02:29:44;39.33;;;36.33;;
15454;SDS011;21057;51.024;7.540;2023-03-13T02:32:13;39.00;;;35.93;;
15454;SDS011;21057;51.024;7.540;2023-03-13T02:34:41;38.27;;;35.20;;
15454;SDS011;21057;51.024;7.540;2023-03-13T02:37:12;36.97;;;34.37;;
15454;SDS011;21057;51.024;7.540;2023-03-13T02:39:40;37.73;;;35.40;;
15454;SDS011;21057;51.024;7.540;2023-03-13T02:42:11;36.90;;;34.60;;
15454;SDS011;21057;51.024;7.540;2023-03-13T02:44:41;39.80;;;36.43;;
15454;SDS011;21057;51.024;7.540;2023-03-13T02:47:18;37.53;;;34.93;;
15454;SDS011;21057;51.024;7.540;2023-03-13T02:49:46;40.47;;;37.37;;
15454;SDS011;21057;51.024;7.540;2023-03-13T02:52:17;36.97;;;33.70;;
15454;SDS011;21057;51.024;7.540;2023-03-13T02:54:46;38.20;;;35.20;;
15454;SDS011;21057;51.024;7.540;2023-03-13T02:57:16;36.37;;;33.50;;
15454;SDS011;21057;51.024;7.540;2023-03-13T02:59:45;37.90;;;35.17;;
15454;SDS011;21057;51.024;7.540;2023-03-13T03:02:12;36.60;;;34.03;;
15454;SDS011;21057;51.024;7.540;2023-03-13T03:04:43;38.67;;;35.63;;
15454;SDS011;21057;51.024;7.540;2023-03-13T03:07:10;38.60;;;35.77;;
15454;SDS011;21057;51.024;7.540;2023-03-13T03:12:15;40.40;;;36.77;;
15454;SDS011;21057;51.024;7.540;2023-03-13T03:14:41;40.27;;;37.57;;
15454;SDS011;21057;51.024;7.540;2023-03-13T03:17:10;39.20;;;36.40;;
15454;SDS011;21057;51.024;7.540;2023-03-13T03:19:36;41.20;;;38.40;;
15454;SDS011;21057;51.024;7.540;2023-03-13T03:22:03;41.70;;;38.63;;
15454;SDS011;21057;51.024;7.540;2023-03-13T03:24:41;41.20;;;38.60;;
15454;SDS011;21057;51.024;7.540;2023-03-13T03:27:08;38.93;;;36.43;;
15454;SDS011;21057;51.024;7.540;2023-03-13T03:29:35;40.20;;;37.60;;
15454;SDS011;21057;51.024;7.540;2023-03-13T03:32:02;40.33;;;37.10;;
15454;SDS011;21057;51.024;7.540;2023-03-13T03:34:30;37.13;;;34.53;;
15454;SDS011;21057;51.024;7.540;2023-03-13T03:37:05;38.10;;;35.70;;
15454;SDS011;21057;51.024;7.540;2023-03-13T03:39:32;36.10;;;33.87;;
15454;SDS011;21057;51.024;7.540;2023-03-13T03:41:59;38.57;;;35.70;;
15454;SDS011;21057;51.024;7.540;2023-03-13T03:47:11;39.00;;;34.93;;
15454;SDS011;21057;51.024;7.540;2023-03-13T03:49:40;39.07;;;35.97;;
15454;SDS011;21057;51.024;7.540;2023-03-13T03:52:06;39.30;;;36.80;;
15454;SDS011;21057;51.024;7.540;2023-03-13T03:54:33;37.33;;;34.20;;
15454;SDS011;21057;51.024;7.540;2023-03-13T03:57:00;37.90;;;35.20;;
15454;SDS011;21057;51.024;7.540;2023-03-13T03:59:29;38.67;;;36.17;;
15454;SDS011;21057;51.024;7.540;2023-03-13T04:01:56;38.67;;;35.93;;
15454;SDS011;21057;51.024;7.540;2023-03-13T04:04:23;38.37;;;35.87;;
15454;SDS011;21057;51.024;7.540;2023-03-13T04:06:51;38.20;;;35.60;;
15454;SDS011;21057;51.024;7.540;2023-03-13T04:09:18;37.70;;;35.40;;
15454;SDS011;21057;51.024;7.540;2023-03-13T04:11:47;37.30;;;34.70;;
15454;SDS011;21057;51.024;7.540;2023-03-13T04:14:15;38.37;;;35.33;;
15454;SDS011;21057;51.024;7.540;2023-03-13T04:16:44;38.47;;;35.90;;
15454;SDS011;21057;51.024;7.540;2023-03-13T04:19:11;37.90;;;35.70;;
15454;SDS011;21057;51.024;7.540;2023-03-13T04:21:37;41.43;;;38.63;;
15454;SDS011;21057;51.024;7.540;2023-03-13T04:24:06;41.17;;;38.57;;
15454;SDS011;21057;51.024;7.540;2023-03-13T04:29:05;43.03;;;40.43;;
15454;SDS011;21057;51.024;7.540;2023-03-13T04:31:33;43.10;;;40.33;;
15454;SDS011;21057;51.024;7.540;2023-03-13T04:34:00;43.73;;;41.13;;
15454;SDS011;21057;51.024;7.540;2023-03-13T04:36:28;43.50;;;40.30;;
15454;SDS011;21057;51.024;7.540;2023-03-13T04:38:55;41.70;;;39.03;;
15454;SDS011;21057;51.024;7.540;2023-03-13T04:41:23;42.53;;;39.53;;
15454;SDS011;21057;51.024;7.540;2023-03-13T04:43:54;44.00;;;40.87;;
15454;SDS011;21057;51.024;7.540;2023-03-13T04:46:21;41.13;;;38.63;;
15454;SDS011;21057;51.024;7.540;2023-03-13T04:48:48;41.00;;;38.40;;
15454;SDS011;21057;51.024;7.540;2023-03-13T04:51:15;43.03;;;40.47;;
15454;SDS011;21057;51.024;7.540;2023-03-13T04:53:42;46.43;;;43.27;;
15454;SDS011;21057;51.024;7.540;2023-03-13T04:56:09;41.57;;;38.87;;
15454;SDS011;21057;51.024;7.540;2023-03-13T04:58:43;40.20;;;37.70;;
15454;SDS011;21057;51.024;7.540;2023-03-13T05:01:10;41.53;;;38.87;;
15454;SDS011;21057;51.024;7.540;2023-03-13T05:03:39;43.83;;;41.13;;
15454;SDS011;21057;51.024;7.540;2023-03-13T05:06:06;42.80;;;40.30;;
15454;SDS011;21057;51.024;7.540;2023-03-13T05:08:33;45.10;;;42.50;;
15454;SDS011;21057;51.024;7.540;2023-03-13T05:11:03;46.23;;;43.30;;
15454;SDS011;21057;51.024;7.540;2023-03-13T05:13:30;44.40;;;41.70;;
15454;SDS011;21057;51.024;7.540;2023-03-13T05:16:00;43.47;;;40.97;;
15454;SDS011;21057;51.024;7.540;2023-03-13T05:18:27;46.00;;;43.40;;
15454;SDS011;21057;51.024;7.540;2023-03-13T05:20:54;48.37;;;45.47;;
15454;SDS011;21057;51.024;7.540;2023-03-13T05:23:20;45.80;;;42.97;;
15454;SDS011;21057;51.024;7.540;2023-03-13T05:25:47;44.17;;;41.50;;
15454;SDS011;21057;51.024;7.540;2023-03-13T05:28:27;44.60;;;42.00;;
15454;SDS011;21057;51.024;7.540;2023-03-13T05:30:53;44.80;;;42.37;;
15454;SDS011;21057;51.024;7.540;2023-03-13T05:33:22;46.53;;;43.80;;
15454;SDS011;21057;51.024;7.540;2023-03-13T05:35:49;47.40;;;44.77;;
15454;SDS011;21057;51.024;7.540;2023-03-13T05:38:15;45.83;;;43.40;;
15454;SDS011;21057;51.024;7.540;2023-03-13T05:40:42;45.00;;;42.50;;
15454;SDS011;21057;51.024;7.540;2023-03-13T05:43:10;44.73;;;42.07;;
15454;SDS011;21057;51.024;7.540;2023-03-13T05:45:37;44.97;;;42.47;;
15454;SDS011;21057;51.024;7.540;2023-03-13T05:48:04;42.77;;;40.27;;
15454;SDS011;21057;51.024;7.540;2023-03-13T05:50:33;42.70;;;40.20;;
15454;SDS011;21057;51.024;7.540;2023-03-13T05:52:59;45.23;;;42.73;;
15454;SDS011;21057;51.024;7.540;2023-03-13T05:55:27;42.90;;;40.40;;
15454;SDS011;21057;51.024;7.540;2023-03-13T05:57:54;45.87;;;43.37;;
15454;SDS011;21057;51.024;7.540;2023-03-13T06:02:51;46.07;;;43.47;;
15454;SDS011;21057;51.024;7.540;2023-03-13T06:05:19;46.37;;;43.77;;
15454;SDS011;21057;51.024;7.540;2023-03-13T06:07:47;44.77;;;42.30;;
15454;SDS011;21057;51.024;7.540;2023-03-13T06:10:15;42.97;;;40.50;;
15454;SDS011;21057;51.024;7.540;2023-03-13T06:12:42;42.53;;;40.10;;
15454;SDS011;21057;51.024;7.540;2023-03-13T06:15:09;46.60;;;44.00;;
15454;SDS011;21057;51.024;7.540;2023-03-13T06:17:37;45.03;;;42.47;;
15454;SDS011;21057;51.024;7.540;2023-03-13T06:20:04;45.67;;;43.07;;
15454;SDS011;21057;51.024;7.540;2023-03-13T06:22:37;45.83;;;43.23;;
15454;SDS011;21057;51.024;7.540;2023-03-13T06:25:06;46.50;;;43.80;;
15454;SDS011;21057;51.024;7.540;2023-03-13T06:27:34;44.10;;;41.60;;
15454;SDS011;21057;51.024;7.540;2023-03-13T06:30:02;45.63;;;43.03;;
15454;SDS011;21057;51.024;7.540;2023-03-13T06:32:29;45.00;;;42.40;;
15454;SDS011;21057;51.024;7.540;2023-03-13T06:34:55;43.80;;;41.30;;
15454;SDS011;21057;51.024;7.540;2023-03-13T06:37:38;43.60;;;41.10;;
15454;SDS011;21057;51.024;7.540;2023-03-13T06:40:17;43.73;;;41.23;;
15454;SDS011;21057;51.024;7.540;2023-03-13T06:42:44;44.73;;;42.23;;
15454;SDS011;21057;51.024;7.540;2023-03-13T06:45:11;43.67;;;41.07;;
15454;SDS011;21057;51.024;7.540;2023-03-13T06:47:38;47.50;;;44.80;;
15454;SDS011;21057;51.024;7.540;2023-03-13T06:50:05;46.33;;;43.50;;
15454;SDS011;21057;51.024;7.540;2023-03-13T06:52:37;46.37;;;43.67;;
15454;SDS011;21057;51.024;7.540;2023-03-13T06:55:04;47.60;;;44.90;;
15454;SDS011;21057;51.024;7.540;2023-03-13T07:00:04;44.40;;;41.80;;
15454;SDS011;21057;51.024;7.540;2023-03-13T07:02:32;42.60;;;40.10;;
15454;SDS011;21057;51.024;7.540;2023-03-13T07:05:01;43.60;;;41.00;;
15454;SDS011;21057;51.024;7.540;2023-03-13T07:07:29;45.13;;;42.43;;
15454;SDS011;21057;51.024;7.540;2023-03-13T07:09:59;44.97;;;42.27;;
15454;SDS011;21057;51.024;7.540;2023-03-13T07:12:28;42.20;;;39.60;;
15454;SDS011;21057;51.024;7.540;2023-03-13T07:14:56;41.60;;;39.00;;
15454;SDS011;21057;51.024;7.540;2023-03-13T07:17:31;43.37;;;40.77;;
15454;SDS011;21057;51.024;7.540;2023-03-13T07:19:58;45.07;;;42.47;;
15454;SDS011;21057;51.024;7.540;2023-03-13T07:22:25;44.77;;;42.17;;
15454;SDS011;21057;51.024;7.540;2023-03-13T07:24:52;45.10;;;42.40;;
15454;SDS011;21057;51.024;7.540;2023-03-13T07:27:18;46.87;;;43.97;;
15454;SDS011;21057;51.024;7.540;2023-03-13T07:29:46;43.80;;;41.10;;
15454;SDS011;21057;51.024;7.540;2023-03-13T07:32:15;43.33;;;40.63;;
15454;SDS011;21057;51.024;7.540;2023-03-13T07:34:44;47.03;;;44.10;;
15454;SDS011;21057;51.024;7.540;2023-03-13T07:37:12;46.50;;;43.80;;
15454;SDS011;21057;51.024;7.540;2023-03-13T07:39:40;45.50;;;42.83;;
15454;SDS011;21057;51.024;7.540;2023-03-13T07:42:08;47.70;;;44.80;;
15454;SDS011;21057;51.024;7.540;2023-03-13T07:44:38;48.30;;;45.60;;
15454;SDS011;21057;51.024;7.540;2023-03-13T07:47:06;46.47;;;43.77;;
15454;SDS011;21057;51.024;7.540;2023-03-13T07:49:34;45.57;;;42.87;;
15454;SDS011;21057;51.024;7.540;2023-03-13T07:52:06;47.97;;;45.17;;
15454;SDS011;21057;51.024;7.540;2023-03-13T07:54:43;46.83;;;43.93;;
15454;SDS011;21057;51.024;7.540;2023-03-13T07:57:11;47.07;;;44.37;;
15454;SDS011;21057;51.024;7.540;2023-03-13T07:59:53;45.87;;;43.13;;
15454;SDS011;21057;51.024;7.540;2023-03-13T08:02:20;45.93;;;42.93;;
15454;SDS011;21057;51.024;7.540;2023-03-13T08:04:52;46.23;;;43.53;;
15454;SDS011;21057;51.024;7.540;2023-03-13T08:07:20;45.30;;;42.43;;
15454;SDS011;21057;51.024;7.540;2023-03-13T08:09:46;46.33;;;43.43;;
15454;SDS011;21057;51.024;7.540;2023-03-13T08:12:13;43.87;;;41.17;;
15454;SDS011;21057;51.024;7.540;2023-03-13T08:14:42;41.87;;;39.00;;
15454;SDS011;21057;51.024;7.540;2023-03-13T08:17:09;41.10;;;38.70;;
15454;SDS011;21057;51.024;7.540;2023-03-13T08:19:36;39.40;;;37.00;;
15454;SDS011;21057;51.024;7.540;2023-03-13T08:22:04;38.33;;;36.13;;
15454;SDS011;21057;51.024;7.540;2023-03-13T08:24:31;40.13;;;37.37;;
15454;SDS011;21057;51.024;7.540;2023-03-13T08:27:04;36.90;;;34.60;;
15454;SDS011;21057;51.024;7.540;2023-03-13T08:29:32;38.10;;;35.50;;
15454;SDS011;21057;51.024;7.540;2023-03-13T08:32:02;38.50;;;35.80;;
15454;SDS011;21057;51.024;7.540;2023-03-13T08:34:29;39.13;;;36.17;;
15454;SDS011;21057;51.024;7.540;2023-03-13T08:36:56;35.97;;;33.67;;
15454;SDS011;21057;51.024;7.540;2023-03-13T08:39:25;36.43;;;33.77;;
15454;SDS011;21057;51.024;7.540;2023-03-13T08:41:52;37.23;;;34.73;;
15454;SDS011;21057;51.024;7.540;2023-03-13T08:44:20;35.60;;;33.20;;
15454;SDS011;21057;51.024;7.540;2023-03-13T08:47:05;38.37;;;35.90;;
15454;SDS011;21057;51.024;7.540;2023-03-13T08:49:32;38.97;;;36.37;;
15454;SDS011;21057;51.024;7.540;2023-03-13T08:52:02;36.70;;;34.43;;
15454;SDS011;21057;51.024;7.540;2023-03-13T08:54:36;35.27;;;32.90;;
15454;SDS011;21057;51.024;7.540;2023-03-13T08:57:03;34.30;;;31.90;;
15454;SDS011;21057;51.024;7.540;2023-03-13T08:59:32;32.90;;;30.80;;
15454;SDS011;21057;51.024;7.540;2023-03-13T09:02:05;34.30;;;31.90;;
15454;SDS011;21057;51.024;7.540;2023-03-13T09:04:34;35.50;;;33.20;;
15454;SDS011;21057;51.024;7.540;2023-03-13T09:07:01;35.67;;;33.10;;
15454;SDS011;21057;51.024;7.540;2023-03-13T09:09:33;36.43;;;33.50;;
15454;SDS011;21057;51.024;7.540;2023-03-13T09:12:01;35.77;;;33.53;;
15454;SDS011;21057;51.024;7.540;2023-03-13T09:14:29;36.20;;;34.00;;
15454;SDS011;21057;51.024;7.540;2023-03-13T09:19:41;39.97;;;37.20;;
15454;SDS011;21057;51.024;7.540;2023-03-13T09:22:08;42.60;;;40.00;;
15454;SDS011;21057;51.024;7.540;2023-03-13T09:24:35;42.17;;;39.17;;
15454;SDS011;21057;51.024;7.540;2023-03-13T09:27:04;42.07;;;39.47;;
15454;SDS011;21057;51.024;7.540;2023-03-13T09:29:44;42.07;;;39.27;;
15454;SDS011;21057;51.024;7.540;2023-03-13T09:32:11;43.07;;;40.23;;
15454;SDS011;21057;51.024;7.540;2023-03-13T09:34:46;39.97;;;37.13;;
15454;SDS011;21057;51.024;7.540;2023-03-13T09:37:13;42.20;;;39.50;;
15454;SDS011;21057;51.024;7.540;2023-03-13T09:39:40;41.33;;;38.73;;
15454;SDS011;21057;51.024;7.540;2023-03-13T09:42:08;40.53;;;37.60;;
15454;SDS011;21057;51.024;7.540;2023-03-13T09:44:54;40.33;;;37.40;;
15454;SDS011;21057;51.024;7.540;2023-03-13T09:47:25;41.70;;;38.90;;
15454;SDS011;21057;51.024;7.540;2023-03-13T09:50:01;42.07;;;39.27;;
15454;SDS011;21057;51.024;7.540;2023-03-13T09:52:37;42.27;;;39.47;;
15454;SDS011;21057;51.024;7.540;2023-03-13T09:55:20;43.27;;;40.37;;
15454;SDS011;21057;51.024;7.540;2023-03-13T10:00:45;43.37;;;40.07;;
15454;SDS011;21057;51.024;7.540;2023-03-13T10:03:19;41.10;;;38.40;;
15454;SDS011;21057;51.024;7.540;2023-03-13T10:05:51;43.63;;;41.03;;
15454;SDS011;21057;51.024;7.540;2023-03-13T10:08:29;43.50;;;40.80;;
15454;SDS011;21057;51.024;7.540;2023-03-13T10:11:02;41.87;;;39.13;;
15454;SDS011;21057;51.024;7.540;2023-03-13T10:13:35;42.00;;;39.23;;
15454;SDS011;21057;51.024;7.540;2023-03-13T10:16:07;45.13;;;42.43;;
15454;SDS011;21057;51.024;7.540;2023-03-13T10:18:37;41.43;;;38.53;;
15454;SDS011;21057;51.024;7.540;2023-03-13T10:21:11;45.50;;;42.43;;
15454;SDS011;21057;51.024;7.540;2023-03-13T10:23:54;41.67;;;39.07;;
15454;SDS011;21057;51.024;7.540;2023-03-13T10:26:28;42.37;;;39.47;;
15454;SDS011;21057;51.024;7.540;2023-03-13T10:29:01;42.30;;;39.60;;
15454;SDS011;21057;51.024;7.540;2023-03-13T10:31:42;40.97;;;38.07;;
15454;SDS011;21057;51.024;7.540;2023-03-13T10:34:22;41.70;;;39.00;;
15454;SDS011;21057;51.024;7.540;2023-03-13T10:36:53;40.30;;;37.80;;
15454;SDS011;21057;51.024;7.540;2023-03-13T10:39:29;39.60;;;36.77;;
15454;SDS011;21057;51.024;7.540;2023-03-13T10:41:57;40.97;;;37.97;;
15454;SDS011;21057;51.024;7.540;2023-03-13T10:44:44;42.47;;;39.50;;
15454;SDS011;21057;51.024;7.540;2023-03-13T10:47:13;43.03;;;40.23;;
15454;SDS011;21057;51.024;7.540;2023-03-13T10:49:51;40.13;;;37.63;;
15454;SDS011;21057;51.024;7.540;2023-03-13T10:52:29;42.17;;;39.47;;
15454;SDS011;21057;51.024;7.540;2023-03-13T10:55:10;41.57;;;38.87;;
15454;SDS011;21057;51.024;7.540;2023-03-13T10:57:50;41.83;;;39.23;;
15454;SDS011;21057;51.024;7.540;2023-03-13T11:00:33;43.60;;;40.80;;
15454;SDS011;21057;51.024;7.540;2023-03-13T11:03:01;42.20;;;39.50;;
15454;SDS011;21057;51.024;7.540;2023-03-13T11:05:43;40.97;;;38.37;;
15454;SDS011;21057;51.024;7.540;2023-03-13T11:10:50;42.33;;;39.73;;
15454;SDS011;21057;51.024;7.540;2023-03-13T11:13:26;44.03;;;41.47;;
15454;SDS011;21057;51.024;7.540;2023-03-13T11:16:04;44.97;;;42.07;;
15454;SDS011;21057;51.024;7.540;2023-03-13T11:18:38;43.63;;;40.93;;
15454;SDS011;21057;51.024;7.540;2023-03-13T11:21:16;43.27;;;40.73;;
15454;SDS011;21057;51.024;7.540;2023-03-13T11:23:52;40.37;;;37.80;;
15454;SDS011;21057;51.024;7.540;2023-03-13T11:26:29;39.07;;;36.63;;
15454;SDS011;21057;51.024;7.540;2023-03-13T11:29:02;43.10;;;40.37;;
15454;SDS011;21057;51.024;7.540;2023-03-13T11:31:36;41.80;;;39.30;;
15454;SDS011;21057;51.024;7.540;2023-03-13T11:34:12;41.97;;;39.47;;
15454;SDS011;21057;51.024;7.540;2023-03-13T11:36:48;37.63;;;35.20;;
15454;SDS011;21057;51.024;7.540;2023-03-13T11:45:41;36.93;;;34.53;;
15454;SDS011;21057;51.024;7.540;2023-03-13T11:48:20;40.90;;;38.30;;
15454;SDS011;21057;51.024;7.540;2023-03-13T11:51:09;43.43;;;40.63;;
15454;SDS011;21057;51.024;7.540;2023-03-13T11:53:51;43.93;;;41.10;;
15454;SDS011;21057;51.024;7.540;2023-03-13T11:56:36;42.10;;;39.50;;
15454;SDS011;21057;51.024;7.540;2023-03-13T11:59:25;40.33;;;37.83;;
15454;SDS011;21057;51.024;7.540;2023-03-13T12:02:03;39.20;;;36.80;;
15454;SDS011;21057;51.024;7.540;2023-03-13T12:04:44;40.70;;;38.10;;
15454;SDS011;21057;51.024;7.540;2023-03-13T12:07:25;37.57;;;34.53;;
15454;SDS011;21057;51.024;7.540;2023-03-13T12:10:03;35.87;;;33.57;;
15454;SDS011;21057;51.024;7.540;2023-03-13T12:15:20;36.10;;;33.40;;
15454;SDS011;21057;51.024;7.540;2023-03-13T12:17:50;36.00;;;33.70;;
15454;SDS011;21057;51.024;7.540;2023-03-13T12:20:22;34.50;;;32.37;;
15454;SDS011;21057;51.024;7.540;2023-03-13T12:22:56;35.80;;;33.50;;
15454;SDS011;21057;51.024;7.540;2023-03-13T12:25:38;36.43;;;34.23;;
15454;SDS011;21057;51.024;7.540;2023-03-13T12:28:18;36.10;;;34.00;;
15454;SDS011;21057;51.024;7.540;2023-03-13T12:31:01;34.17;;;31.97;;
15454;SDS011;21057;51.024;7.540;2023-03-13T12:33:35;35.33;;;33.13;;
15454;SDS011;21057;51.024;7.540;2023-03-13T12:36:16;36.13;;;33.93;;
15454;SDS011;21057;51.024;7.540;2023-03-13T12:38:53;35.63;;;33.33;;
15454;SDS011;21057;51.024;7.540;2023-03-13T12:41:23;35.63;;;33.33;;
15454;SDS011;21057;51.024;7.540;2023-03-13T12:44:03;33.97;;;31.87;;
15454;SDS011;21057;51.024;7.540;2023-03-13T12:49:22;33.43;;;31.40;;
15454;SDS011;21057;51.024;7.540;2023-03-13T12:52:31;30.87;;;28.87;;
15454;SDS011;21057;51.024;7.540;2023-03-13T13:01:18;27.73;;;26.03;;
15454;SDS011;21057;51.024;7.540;2023-03-13T13:03:57;26.20;;;24.60;;
15454;SDS011;21057;51.024;7.540;2023-03-13T13:06:27;24.83;;;23.33;;
15454;SDS011;21057;51.024;7.540;2023-03-13T13:09:21;27.40;;;25.80;;
15454;SDS011;21057;51.024;7.540;2023-03-13T13:11:50;29.03;;;27.10;;
15454;SDS011;21057;51.024;7.540;2023-03-13T13:17:27;29.33;;;27.60;;
15454;SDS011;21057;51.024;7.540;2023-03-13T13:23:21;30.73;;;28.93;;
15454;SDS011;21057;51.024;7.540;2023-03-13T13:26:35;30.60;;;28.90;;
15454;SDS011;21057;51.024;7.540;2023-03-13T13:32:32;29.30;;;27.50;;
15454;SDS011;21057;51.024;7.540;2023-03-13T13:35:10;30.23;;;28.33;;
15454;SDS011;21057;51.024;7.540;2023-03-13T13:37:49;29.60;;;27.90;;
15454;SDS011;21057;51.024;7.540;2023-03-13T13:40:17;29.63;;;27.87;;
15454;SDS011;21057;51.024;7.540;2023-03-13T13:42:49;28.23;;;26.53;;
15454;SDS011;21057;51.024;7.540;2023-03-13T13:45:23;29.03;;;27.23;;
15454;SDS011;21057;51.024;7.540;2023-03-13T13:51:23;29.23;;;27.33;;
15454;SDS011;21057;51.024;7.540;2023-03-13T13:53:52;28.97;;;27.17;;
15454;SDS011;21057;51.024;7.540;2023-03-13T13:59:26;29.30;;;27.60;;
15454;SDS011;21057;51.024;7.540;2023-03-13T14:02:11;29.87;;;28.07;;
15454;SDS011;21057;51.024;7.540;2023-03-13T14:05:00;29.83;;;28.03;;
15454;SDS011;21057;51.024;7.540;2023-03-13T14:10:29;30.00;;;28.10;;
15454;SDS011;21057;51.024;7.540;2023-03-13T14:15:48;31.17;;;29.27;;
15454;SDS011;21057;51.024;7.540;2023-03-13T14:18:23;31.87;;;29.87;;
15454;SDS011;21057;51.024;7.540;2023-03-13T14:20:52;30.87;;;28.67;;
15454;SDS011;21057;51.024;7.540;2023-03-13T14:26:12;32.37;;;30.47;;
15454;SDS011;21057;51.024;7.540;2023-03-13T14:31:53;32.00;;;29.90;;
15454;SDS011;21057;51.024;7.540;2023-03-13T14:34:22;30.53;;;28.63;;
15454;SDS011;21057;51.024;7.540;2023-03-13T14:36:52;31.60;;;29.50;;
15454;SDS011;21057;51.024;7.540;2023-03-13T14:39:34;31.20;;;29.30;;
15454;SDS011;21057;51.024;7.540;2023-03-13T14:42:02;31.23;;;29.33;;
15454;SDS011;21057;51.024;7.540;2023-03-13T14:44:34;31.40;;;29.60;;
15454;SDS011;21057;51.024;7.540;2023-03-13T14:47:05;33.40;;;31.40;;
15454;SDS011;21057;51.024;7.540;2023-03-13T14:49:33;33.70;;;31.80;;
15454;SDS011;21057;51.024;7.540;2023-03-13T14:52:03;33.00;;;31.03;;
15454;SDS011;21057;51.024;7.540;2023-03-13T14:54:50;29.40;;;27.70;;
15454;SDS011;21057;51.024;7.540;2023-03-13T14:57:19;26.87;;;25.27;;
15454;SDS011;21057;51.024;7.540;2023-03-13T14:59:49;27.27;;;25.67;;
15454;SDS011;21057;51.024;7.540;2023-03-13T15:02:21;27.40;;;25.70;;
15454;SDS011;21057;51.024;7.540;2023-03-13T15:04:51;26.13;;;24.53;;
15454;SDS011;21057;51.024;7.540;2023-03-13T15:07:23;26.93;;;25.33;;
15454;SDS011;21057;51.024;7.540;2023-03-13T15:09:52;28.07;;;26.17;;
15454;SDS011;21057;51.024;7.540;2023-03-13T15:12:20;27.37;;;25.77;;
15454;SDS011;21057;51.024;7.540;2023-03-13T15:14:50;27.60;;;25.93;;
15454;SDS011;21057;51.024;7.540;2023-03-13T15:17:19;27.97;;;26.37;;
15454;SDS011;21057;51.024;7.540;2023-03-13T15:19:50;27.83;;;26.13;;
15454;SDS011;21057;51.024;7.540;2023-03-13T15:22:24;28.60;;;26.90;;
15454;SDS011;21057;51.024;7.540;2023-03-13T15:24:54;28.27;;;26.53;;
15454;SDS011;21057;51.024;7.540;2023-03-13T15:27:23;26.73;;;25.13;;
15454;SDS011;21057;51.024;7.540;2023-03-13T15:29:51;26.30;;;24.70;;
15454;SDS011;21057;51.024;7.540;2023-03-13T15:32:23;26.07;;;24.47;;
15454;SDS011;21057;51.024;7.540;2023-03-13T15:34:51;27.70;;;26.10;;
15454;SDS011;21057;51.024;7.540;2023-03-13T15:37:24;27.60;;;26.00;;
15454;SDS011;21057;51.024;7.540;2023-03-13T15:39:51;27.60;;;26.10;;
15454;SDS011;21057;51.024;7.540;2023-03-13T15:42:21;27.73;;;26.13;;
15454;SDS011;21057;51.024;7.540;2023-03-13T15:44:48;27.27;;;25.67;;
15454;SDS011;21057;51.024;7.540;2023-03-13T15:47:18;27.43;;;25.83;;
15454;SDS011;21057;51.024;7.540;2023-03-13T15:49:47;26.63;;;25.13;;
15454;SDS011;21057;51.024;7.540;2023-03-13T15:52:20;26.37;;;24.87;;